createdAt,value
2023-04-30T00:02:23.735Z,29.30
2023-04-30T00:04:51.006Z,27.73
2023-04-30T00:07:18.327Z,27.58
2023-04-30T00:09:45.543Z,26.65
2023-04-30T00:12:12.959Z,23.45
2023-04-30T00:14:40.295Z,25.85
2023-04-30T00:17:07.682Z,21.30
2023-04-30T00:19:34.981Z,20.75
2023-04-30T00:22:02.326Z,23.55
2023-04-30T00:24:29.488Z,21.25
2023-04-30T00:26:56.719Z,23.45
2023-04-30T00:29:24.101Z,23.58
2023-04-30T00:31:51.023Z,25.75
2023-04-30T00:34:18.261Z,24.83
2023-04-30T00:36:45.626Z,37.92
2023-04-30T00:39:13.058Z,35.13
2023-04-30T00:41:40.644Z,34.58
2023-04-30T00:44:07.812Z,32.38
2023-04-30T00:46:35.145Z,28.17
2023-04-30T00:49:05.297Z,23.63
2023-04-30T00:51:33.800Z,22.85
2023-04-30T00:54:04.432Z,19.65
2023-04-30T00:56:32.758Z,22.40
2023-04-30T00:59:00.156Z,20.75
2023-04-30T01:01:32.222Z,23.88
2023-04-30T01:04:01.398Z,23.77
2023-04-30T01:06:28.552Z,20.23
2023-04-30T01:08:57.749Z,21.83
2023-04-30T01:11:50.262Z,24.08
2023-04-30T01:14:31.438Z,29.20
2023-04-30T01:17:10.141Z,30.35
2023-04-30T01:19:43.171Z,26.45
2023-04-30T01:22:21.261Z,24.60
2023-04-30T01:25:10.809Z,27.42
2023-04-30T01:27:52.521Z,26.70
2023-04-30T01:30:20.421Z,24.05
2023-04-30T01:32:47.690Z,25.27
2023-04-30T01:35:14.945Z,25.10
2023-04-30T01:38:00.810Z,24.75
2023-04-30T01:40:39.883Z,21.20
2023-04-30T01:43:23.400Z,23.27
2023-04-30T01:46:17.503Z,21.33
2023-04-30T01:49:11.364Z,23.67
2023-04-30T01:51:47.458Z,22.45
2023-04-30T01:54:33.665Z,25.88
2023-04-30T01:57:05.543Z,20.92
2023-04-30T01:59:40.284Z,24.33
2023-04-30T02:02:07.684Z,22.10
2023-04-30T02:04:35.188Z,20.95
2023-04-30T02:07:02.412Z,21.13
2023-04-30T02:09:29.600Z,21.63
2023-04-30T02:11:58.389Z,19.15
2023-04-30T02:14:26.119Z,18.65
2023-04-30T02:16:53.345Z,22.38
2023-04-30T02:19:20.554Z,19.35
2023-04-30T02:21:47.700Z,23.90
2023-04-30T02:24:15.069Z,24.13
2023-04-30T02:26:42.346Z,25.38
2023-04-30T02:29:09.530Z,25.00
2023-04-30T02:31:36.739Z,27.30
2023-04-30T02:34:04.103Z,27.25
2023-04-30T02:36:36.731Z,32.45
2023-04-30T02:39:03.971Z,34.45
2023-04-30T02:41:31.216Z,35.03
2023-04-30T02:43:58.344Z,29.23
2023-04-30T02:46:25.631Z,28.90
2023-04-30T02:48:52.856Z,26.13
2023-04-30T02:51:20.135Z,35.30
2023-04-30T02:53:47.444Z,35.25
2023-04-30T02:56:14.715Z,34.05
2023-04-30T02:58:42.128Z,34.28
2023-04-30T03:01:09.352Z,37.05
2023-04-30T03:03:36.642Z,43.13
2023-04-30T03:06:03.918Z,41.10
2023-04-30T03:08:31.453Z,44.72
2023-04-30T03:10:58.757Z,42.13
2023-04-30T03:13:28.703Z,41.55
2023-04-30T03:16:06.646Z,44.17
2023-04-30T03:18:34.067Z,42.47
2023-04-30T03:21:01.164Z,49.28
2023-04-30T03:23:29.681Z,45.55
2023-04-30T03:25:56.840Z,46.47
2023-04-30T03:28:24.113Z,60.83
2023-04-30T03:30:51.588Z,46.78
2023-04-30T03:33:18.941Z,49.10
2023-04-30T03:35:46.584Z,48.63
2023-04-30T03:38:13.902Z,52.15
2023-04-30T03:40:41.305Z,47.67
2023-04-30T03:43:08.652Z,50.08
2023-04-30T03:45:35.990Z,47.78
2023-04-30T03:48:03.361Z,52.25
2023-04-30T03:50:30.376Z,56.88
2023-04-30T03:52:57.686Z,51.08
2023-04-30T03:55:24.598Z,50.45
2023-04-30T03:57:52.055Z,59.70
2023-04-30T04:00:19.394Z,50.88
2023-04-30T04:02:46.992Z,60.53
2023-04-30T04:05:14.264Z,51.08
2023-04-30T04:07:41.758Z,49.03
2023-04-30T04:10:09.222Z,53.35
2023-04-30T04:12:36.416Z,64.47
2023-04-30T04:15:03.824Z,51.60
2023-04-30T04:17:31.050Z,48.78
2023-04-30T04:19:58.447Z,49.95
2023-04-30T04:22:26.004Z,44.22
2023-04-30T04:24:53.634Z,38.53
2023-04-30T04:27:20.997Z,36.42
2023-04-30T04:29:48.604Z,39.30
2023-04-30T04:32:16.293Z,34.78
2023-04-30T04:34:44.218Z,33.92
2023-04-30T04:37:11.398Z,33.95
2023-04-30T04:39:39.031Z,25.70
2023-04-30T04:42:06.220Z,25.05
2023-04-30T04:44:33.931Z,23.30
2023-04-30T04:47:01.206Z,20.98
2023-04-30T04:49:28.322Z,21.60
2023-04-30T04:51:55.455Z,19.70
2023-04-30T04:54:22.557Z,13.23
2023-04-30T04:56:50.092Z,11.23
2023-04-30T04:59:18.826Z,10.57
2023-04-30T05:01:45.999Z,9.68
2023-04-30T05:04:14.635Z,9.50
2023-04-30T05:06:43.250Z,9.27
2023-04-30T05:09:10.612Z,8.02
2023-04-30T05:11:38.720Z,9.95
2023-04-30T05:14:05.997Z,8.38
2023-04-30T05:16:33.725Z,9.50
2023-04-30T05:19:04.138Z,11.38
2023-04-30T05:21:32.660Z,11.45
2023-04-30T05:23:59.860Z,12.40
2023-04-30T05:26:27.077Z,11.40
2023-04-30T05:28:54.302Z,14.00
2023-04-30T05:31:21.618Z,14.85
2023-04-30T05:33:49.117Z,13.95
2023-04-30T05:36:16.515Z,13.13
2023-04-30T05:38:43.815Z,12.60
2023-04-30T05:41:13.213Z,14.57
2023-04-30T05:43:40.357Z,11.57
2023-04-30T05:46:07.946Z,15.50
2023-04-30T05:48:36.446Z,13.73
2023-04-30T05:51:04.232Z,14.27
2023-04-30T05:53:32.064Z,18.70
2023-04-30T05:55:59.351Z,27.55
2023-04-30T05:58:27.000Z,30.13
2023-04-30T06:00:54.046Z,40.45
2023-04-30T06:03:22.726Z,32.15
2023-04-30T06:05:49.744Z,34.33
2023-04-30T06:08:17.000Z,37.00
2023-04-30T06:10:43.696Z,36.25
2023-04-30T06:13:10.549Z,37.53
2023-04-30T06:15:38.082Z,34.70
2023-04-30T06:18:05.332Z,37.70
2023-04-30T06:20:32.519Z,37.05
2023-04-30T06:23:00.298Z,33.15
2023-04-30T06:25:27.789Z,32.28
2023-04-30T06:27:54.621Z,35.20
2023-04-30T06:30:21.964Z,32.95
2023-04-30T06:32:49.246Z,40.17
2023-04-30T06:35:16.773Z,40.15
2023-04-30T06:37:43.513Z,40.05
2023-04-30T06:40:11.474Z,37.60
2023-04-30T06:42:38.881Z,40.38
2023-04-30T06:45:07.266Z,35.63
2023-04-30T06:47:38.692Z,37.38
2023-04-30T06:50:06.659Z,41.13
2023-04-30T06:52:33.888Z,39.17
2023-04-30T06:55:01.780Z,39.30
2023-04-30T06:57:29.151Z,41.65
2023-04-30T06:59:57.317Z,44.10
2023-04-30T07:02:24.764Z,41.50
2023-04-30T07:04:52.123Z,49.25
2023-04-30T07:07:19.308Z,43.40
2023-04-30T07:09:46.518Z,41.67
2023-04-30T07:12:13.974Z,41.28
2023-04-30T07:14:40.785Z,40.58
2023-04-30T07:17:08.046Z,37.13
2023-04-30T07:19:35.390Z,37.65
2023-04-30T07:22:02.836Z,40.15
2023-04-30T07:24:30.226Z,37.65
2023-04-30T07:26:57.419Z,38.80
2023-04-30T07:29:24.081Z,35.22
2023-04-30T07:31:52.209Z,36.08
2023-04-30T07:34:19.766Z,40.17
2023-04-30T07:36:48.600Z,34.72
2023-04-30T07:39:16.108Z,41.00
2023-04-30T07:41:43.418Z,35.60
2023-04-30T07:44:12.194Z,29.98
2023-04-30T07:46:39.685Z,35.63
2023-04-30T07:49:07.010Z,37.00
2023-04-30T07:51:34.448Z,36.40
2023-04-30T07:54:01.736Z,30.52
2023-04-30T07:56:29.024Z,37.08
2023-04-30T07:58:56.233Z,40.40
2023-04-30T08:01:23.535Z,47.20
2023-04-30T08:03:51.037Z,37.22
2023-04-30T08:06:18.405Z,28.23
2023-04-30T08:08:45.563Z,24.13
2023-04-30T08:11:16.638Z,19.63
2023-04-30T08:13:43.852Z,19.85
2023-04-30T08:16:11.360Z,19.48
2023-04-30T08:18:45.204Z,22.23
2023-04-30T08:21:16.137Z,19.83
2023-04-30T08:23:43.220Z,20.67
2023-04-30T08:26:10.507Z,17.00
2023-04-30T08:28:37.890Z,20.15
2023-04-30T08:31:05.272Z,19.38
2023-04-30T08:33:32.538Z,18.40
2023-04-30T08:36:00.485Z,16.90
2023-04-30T08:38:29.006Z,16.33
2023-04-30T08:41:16.400Z,18.33
2023-04-30T08:43:45.443Z,16.67
2023-04-30T08:46:14.332Z,17.45
2023-04-30T08:48:42.008Z,19.42
2023-04-30T08:51:09.229Z,12.95
2023-04-30T08:53:38.850Z,15.80
2023-04-30T08:56:06.435Z,9.93
2023-04-30T08:58:33.955Z,9.60
2023-04-30T09:01:02.190Z,8.23
2023-04-30T09:03:31.381Z,8.02
2023-04-30T09:05:58.933Z,11.30
2023-04-30T09:08:47.572Z,8.55
2023-04-30T09:11:31.601Z,10.35
2023-04-30T09:14:00.275Z,9.48
2023-04-30T09:16:33.501Z,7.53
2023-04-30T09:19:00.980Z,8.77
2023-04-30T09:21:36.157Z,5.45
2023-04-30T09:24:05.509Z,5.53
2023-04-30T09:26:39.724Z,7.72
2023-04-30T09:29:10.888Z,5.25
2023-04-30T09:31:39.648Z,5.85
2023-04-30T09:34:07.278Z,6.35
2023-04-30T09:36:35.078Z,4.80
2023-04-30T09:39:14.953Z,3.13
2023-04-30T09:41:43.512Z,4.10
2023-04-30T09:44:31.097Z,30.98
2023-04-30T09:46:59.046Z,9.48
2023-04-30T09:49:27.822Z,4.13
2023-04-30T09:52:01.945Z,4.78
2023-04-30T09:54:31.011Z,6.43
2023-04-30T09:57:02.624Z,3.88
2023-04-30T09:59:35.610Z,4.82
2023-04-30T10:02:05.236Z,7.30
2023-04-30T10:04:39.250Z,6.68
2023-04-30T10:07:15.499Z,5.25
2023-04-30T10:09:59.792Z,5.68
2023-04-30T10:12:35.358Z,4.78
2023-04-30T10:15:10.906Z,6.65
2023-04-30T10:17:44.744Z,4.47
2023-04-30T10:20:14.250Z,6.20
2023-04-30T10:22:42.436Z,4.85
2023-04-30T10:25:13.792Z,3.45
2023-04-30T10:27:41.288Z,4.45
2023-04-30T10:30:10.975Z,3.72
2023-04-30T10:32:56.787Z,3.15
2023-04-30T10:35:31.278Z,4.60
2023-04-30T10:38:13.568Z,3.20
2023-04-30T10:40:40.843Z,7.85
2023-04-30T10:43:08.416Z,2.53
2023-04-30T10:45:38.395Z,2.55
2023-04-30T10:48:07.531Z,3.20
2023-04-30T10:50:44.270Z,3.70
2023-04-30T10:53:19.305Z,3.55
2023-04-30T10:55:55.404Z,4.63
2023-04-30T10:58:32.379Z,5.15
2023-04-30T11:01:02.430Z,3.55
2023-04-30T11:03:30.755Z,4.50
2023-04-30T11:05:58.869Z,4.47
2023-04-30T11:08:37.888Z,5.20
2023-04-30T11:11:08.258Z,3.28
2023-04-30T11:13:44.568Z,2.63
2023-04-30T11:16:12.072Z,3.97
2023-04-30T11:18:44.819Z,3.55
2023-04-30T11:21:12.649Z,3.20
2023-04-30T11:23:43.686Z,3.20
2023-04-30T11:26:11.435Z,3.38
2023-04-30T11:28:39.093Z,3.85
2023-04-30T11:31:06.997Z,5.70
2023-04-30T11:33:35.365Z,3.70
2023-04-30T11:36:03.384Z,7.65
2023-04-30T11:38:34.655Z,5.88
2023-04-30T11:41:03.158Z,5.45
2023-04-30T11:43:35.288Z,3.78
2023-04-30T11:46:06.919Z,4.53
2023-04-30T11:48:36.115Z,4.00
2023-04-30T11:51:27.356Z,4.13
2023-04-30T11:53:54.409Z,7.15
2023-04-30T11:56:24.680Z,4.75
2023-04-30T11:58:58.152Z,2.50
2023-04-30T12:01:28.963Z,5.65
2023-04-30T12:03:57.957Z,3.35
2023-04-30T12:06:29.426Z,5.85
2023-04-30T12:08:58.438Z,8.30
2023-04-30T12:11:30.154Z,5.45
2023-04-30T12:14:05.594Z,4.90
2023-04-30T12:16:49.825Z,8.00
2023-04-30T12:19:18.749Z,4.03
2023-04-30T12:21:48.018Z,3.13
2023-04-30T12:24:19.940Z,5.70
2023-04-30T12:26:48.432Z,2.78
2023-04-30T12:29:17.948Z,4.20
2023-04-30T12:31:46.245Z,4.35
2023-04-30T12:34:15.354Z,3.00
2023-04-30T12:36:43.618Z,2.78
2023-04-30T12:39:18.858Z,2.28
2023-04-30T12:41:48.819Z,3.83
2023-04-30T12:44:24.171Z,2.95
2023-04-30T12:47:00.805Z,2.47
2023-04-30T12:49:29.745Z,2.67
2023-04-30T12:52:08.951Z,5.07
2023-04-30T12:54:37.070Z,3.05
2023-04-30T12:57:05.117Z,4.13
2023-04-30T12:59:37.705Z,7.32
2023-04-30T13:02:11.642Z,3.85
2023-04-30T13:04:39.237Z,5.35
2023-04-30T13:07:06.748Z,6.05
2023-04-30T13:09:35.148Z,3.67
2023-04-30T13:12:02.057Z,4.00
2023-04-30T13:14:29.225Z,7.68
2023-04-30T13:16:56.141Z,3.92
2023-04-30T13:19:23.034Z,3.78
2023-04-30T13:21:50.926Z,3.00
2023-04-30T13:24:19.033Z,1.92
2023-04-30T13:26:46.302Z,4.43
2023-04-30T13:29:13.506Z,6.43
2023-04-30T13:31:40.583Z,15.27
2023-04-30T13:34:07.845Z,4.18
2023-04-30T13:36:34.886Z,5.35
2023-04-30T13:39:01.812Z,1.90
2023-04-30T13:41:29.164Z,2.47
2023-04-30T13:43:55.866Z,3.78
2023-04-30T13:46:24.264Z,2.95
2023-04-30T13:48:53.304Z,1.88
2023-04-30T13:51:20.696Z,1.55
2023-04-30T13:53:48.245Z,2.42
2023-04-30T13:56:15.727Z,3.05
2023-04-30T13:58:43.356Z,3.25
2023-04-30T14:01:10.728Z,4.10
2023-04-30T14:03:38.132Z,2.65
2023-04-30T14:06:06.142Z,3.33
2023-04-30T14:08:33.971Z,2.00
2023-04-30T14:11:02.132Z,2.60
2023-04-30T14:13:29.835Z,3.60
2023-04-30T14:15:57.261Z,3.17
2023-04-30T14:18:24.587Z,2.35
2023-04-30T14:20:51.520Z,2.33
2023-04-30T14:23:18.893Z,3.40
2023-04-30T14:25:45.680Z,3.85
2023-04-30T14:28:12.773Z,3.05
2023-04-30T14:30:39.998Z,3.95
2023-04-30T14:33:06.897Z,4.38
2023-04-30T14:35:34.413Z,2.80
2023-04-30T14:38:01.623Z,2.17
2023-04-30T14:40:28.392Z,3.55
2023-04-30T14:42:55.277Z,6.18
2023-04-30T14:45:21.983Z,3.05
2023-04-30T14:47:48.892Z,2.65
2023-04-30T14:50:16.379Z,2.90
2023-04-30T14:52:43.773Z,3.75
2023-04-30T14:55:10.844Z,2.03
2023-04-30T14:57:39.448Z,4.40
2023-04-30T15:00:06.998Z,1.63
2023-04-30T15:02:34.099Z,4.28
2023-04-30T15:05:00.933Z,1.73
2023-04-30T15:07:28.293Z,3.65
2023-04-30T15:09:55.998Z,4.28
2023-04-30T15:12:23.536Z,1.63
2023-04-30T15:14:51.063Z,5.70
2023-04-30T15:17:17.778Z,1.80
2023-04-30T15:19:45.117Z,2.90
2023-04-30T15:22:12.593Z,2.95
2023-04-30T15:24:39.325Z,3.35
2023-04-30T15:27:06.537Z,1.60
2023-04-30T15:29:33.881Z,3.55
2023-04-30T15:32:01.542Z,3.00
2023-04-30T15:34:28.825Z,2.13
2023-04-30T15:36:59.049Z,2.22
2023-04-30T15:39:27.200Z,2.08
2023-04-30T15:41:54.085Z,3.30
2023-04-30T15:44:21.290Z,3.33
2023-04-30T15:46:48.401Z,2.70
2023-04-30T15:49:16.136Z,2.35
2023-04-30T15:51:43.490Z,2.00
2023-04-30T15:54:11.600Z,2.63
2023-04-30T15:56:39.373Z,1.70
2023-04-30T15:59:06.895Z,2.20
2023-04-30T16:01:34.147Z,3.83
2023-04-30T16:04:02.097Z,1.20
2023-04-30T16:06:30.202Z,5.00
2023-04-30T16:08:57.568Z,4.03
2023-04-30T16:11:24.903Z,3.75
2023-04-30T16:13:52.603Z,3.13
2023-04-30T16:16:20.233Z,4.70
2023-04-30T16:18:46.974Z,1.38
2023-04-30T16:21:14.363Z,1.42
2023-04-30T16:23:41.531Z,4.30
2023-04-30T16:26:08.918Z,3.80
2023-04-30T16:28:36.112Z,3.95
2023-04-30T16:31:03.549Z,3.67
2023-04-30T16:33:30.717Z,2.50
2023-04-30T16:35:57.803Z,3.50
2023-04-30T16:38:24.623Z,2.13
2023-04-30T16:40:51.819Z,6.03
2023-04-30T16:43:18.526Z,3.15
2023-04-30T16:45:45.304Z,2.17
2023-04-30T16:48:12.683Z,2.15
2023-04-30T16:50:39.423Z,2.83
2023-04-30T16:53:07.418Z,2.78
2023-04-30T16:55:35.500Z,6.07
2023-04-30T16:58:02.226Z,6.18
2023-04-30T17:00:30.362Z,2.60
2023-04-30T17:02:57.191Z,3.95
2023-04-30T17:05:24.200Z,1.75
2023-04-30T17:07:51.425Z,3.90
2023-04-30T17:10:19.864Z,4.03
2023-04-30T17:12:47.055Z,4.53
2023-04-30T17:15:13.973Z,5.32
2023-04-30T17:17:41.209Z,2.30
2023-04-30T17:20:08.848Z,3.58
2023-04-30T17:22:36.101Z,3.47
2023-04-30T17:25:04.423Z,4.72
2023-04-30T17:27:31.252Z,3.13
2023-04-30T17:29:58.675Z,2.65
2023-04-30T17:32:27.018Z,2.40
2023-04-30T17:34:54.018Z,3.65
2023-04-30T17:37:20.780Z,3.75
2023-04-30T17:39:47.482Z,3.17
2023-04-30T17:42:14.714Z,4.15
2023-04-30T17:44:42.114Z,2.13
2023-04-30T17:47:08.813Z,3.42
2023-04-30T17:49:35.557Z,4.65
2023-04-30T17:52:02.291Z,1.92
2023-04-30T17:54:31.064Z,4.20
2023-04-30T17:56:59.576Z,1.98
2023-04-30T17:59:30.381Z,2.60
2023-04-30T18:01:57.475Z,2.10
2023-04-30T18:04:25.873Z,1.20
2023-04-30T18:06:53.090Z,2.85
2023-04-30T18:09:20.275Z,4.07
2023-04-30T18:11:47.105Z,2.65
2023-04-30T18:14:13.726Z,2.40
2023-04-30T18:16:41.664Z,2.38
2023-04-30T18:19:09.160Z,3.17
2023-04-30T18:21:36.586Z,2.22
2023-04-30T18:24:03.496Z,2.58
2023-04-30T18:26:30.374Z,2.15
2023-04-30T18:28:57.920Z,2.72
2023-04-30T18:31:24.637Z,3.63
2023-04-30T18:33:51.390Z,2.50
2023-04-30T18:36:18.568Z,2.55
2023-04-30T18:38:46.117Z,2.45
2023-04-30T18:41:13.446Z,4.13
2023-04-30T18:43:43.023Z,4.43
2023-04-30T18:46:10.175Z,3.78
2023-04-30T18:48:37.451Z,5.10
2023-04-30T18:51:04.954Z,6.97
2023-04-30T18:53:31.852Z,7.30
2023-04-30T18:55:58.639Z,7.07
2023-04-30T18:58:25.943Z,12.02
2023-04-30T19:00:57.307Z,8.50
2023-04-30T19:03:25.279Z,7.82
2023-04-30T19:05:59.093Z,7.15
2023-04-30T19:08:26.268Z,7.78
2023-04-30T19:10:54.169Z,5.93
2023-04-30T19:13:20.906Z,4.07
2023-04-30T19:15:49.300Z,6.05
2023-04-30T19:18:18.307Z,4.60
2023-04-30T19:20:57.590Z,4.10
2023-04-30T19:23:24.295Z,4.05
2023-04-30T19:25:50.983Z,7.18
2023-04-30T19:28:18.136Z,2.17
2023-04-30T19:30:45.264Z,2.95
2023-04-30T19:33:12.508Z,5.47
2023-04-30T19:35:39.861Z,3.13
2023-04-30T19:38:06.885Z,2.85
2023-04-30T19:40:34.366Z,2.70
2023-04-30T19:43:00.994Z,4.35
2023-04-30T19:45:28.727Z,4.10
2023-04-30T19:47:56.326Z,2.80
2023-04-30T19:50:24.806Z,4.47
2023-04-30T19:52:52.693Z,7.22
2023-04-30T19:55:19.560Z,3.78
2023-04-30T19:57:47.120Z,3.80
2023-04-30T20:00:15.914Z,7.07
2023-04-30T20:02:43.442Z,4.90
2023-04-30T20:05:10.544Z,8.13
2023-04-30T20:07:37.524Z,4.28
2023-04-30T20:10:05.012Z,6.72
2023-04-30T20:12:32.708Z,4.95
2023-04-30T20:15:01.685Z,5.03
2023-04-30T20:17:29.567Z,3.72
2023-04-30T20:19:57.091Z,5.63
2023-04-30T20:22:24.064Z,3.15
2023-04-30T20:24:51.398Z,5.60
2023-04-30T20:27:18.830Z,4.90
2023-04-30T20:29:45.769Z,4.03
2023-04-30T20:32:12.510Z,3.58
2023-04-30T20:34:39.676Z,3.28
2023-04-30T20:37:06.997Z,4.88
2023-04-30T20:39:34.363Z,3.60
2023-04-30T20:42:02.037Z,5.32
2023-04-30T20:44:29.258Z,5.72
2023-04-30T20:46:56.614Z,6.63
2023-04-30T20:49:23.393Z,5.45
2023-04-30T20:51:50.610Z,8.07
2023-04-30T20:54:17.987Z,5.93
2023-04-30T20:56:47.220Z,6.30
2023-04-30T20:59:14.432Z,6.85
2023-04-30T21:01:41.882Z,7.30
2023-04-30T21:04:09.918Z,15.63
2023-04-30T21:06:37.482Z,26.25
2023-04-30T21:09:04.447Z,30.27
2023-04-30T21:11:32.658Z,35.40
2023-04-30T21:14:00.044Z,39.35
2023-04-30T21:16:28.124Z,58.72
2023-04-30T21:18:55.526Z,51.97
2023-04-30T21:21:23.650Z,43.13
2023-04-30T21:23:51.427Z,24.60
2023-04-30T21:26:19.212Z,16.15
2023-04-30T21:28:46.396Z,12.32
2023-04-30T21:31:13.817Z,9.18
2023-04-30T21:33:40.900Z,6.90
2023-04-30T21:36:07.886Z,10.30
2023-04-30T21:38:34.959Z,8.52
2023-04-30T21:41:01.701Z,21.50
2023-04-30T21:43:28.828Z,99.90
2023-04-30T21:46:02.667Z,142.82
2023-04-30T21:48:29.466Z,49.22
2023-04-30T21:50:56.985Z,31.15
2023-04-30T21:53:24.279Z,18.60
2023-04-30T21:55:51.070Z,12.88
2023-04-30T21:58:17.932Z,14.02
2023-04-30T22:00:44.940Z,12.25
2023-04-30T22:03:12.378Z,11.60
2023-04-30T22:05:40.016Z,10.23
2023-04-30T22:08:06.863Z,11.88
2023-04-30T22:10:34.127Z,10.60
2023-04-30T22:13:01.009Z,11.63
2023-04-30T22:15:37.335Z,12.52
2023-04-30T22:18:14.738Z,8.90
2023-04-30T22:20:41.376Z,16.17
2023-04-30T22:23:08.685Z,8.25
2023-04-30T22:25:35.447Z,18.30
2023-04-30T22:28:03.448Z,15.27
2023-04-30T22:30:30.633Z,4.82
2023-04-30T22:32:58.678Z,5.90
2023-04-30T22:35:28.169Z,5.60
2023-04-30T22:37:55.710Z,4.93
2023-04-30T22:40:23.288Z,5.60
2023-04-30T22:42:50.868Z,5.25
2023-04-30T22:45:18.285Z,6.45
2023-04-30T22:47:46.352Z,7.88
2023-04-30T22:50:13.442Z,8.02
2023-04-30T22:52:40.973Z,11.13
2023-04-30T22:55:08.944Z,11.57
2023-04-30T22:57:36.774Z,8.00
2023-04-30T23:00:05.651Z,8.45
2023-04-30T23:02:32.913Z,8.48
2023-04-30T23:05:00.222Z,6.38
2023-04-30T23:07:27.394Z,4.70
2023-04-30T23:09:54.973Z,4.55
2023-04-30T23:12:22.907Z,7.20
2023-04-30T23:14:50.664Z,6.07
2023-04-30T23:17:18.327Z,3.60
2023-04-30T23:19:45.563Z,4.82
2023-04-30T23:22:12.219Z,6.55
2023-04-30T23:24:39.753Z,6.43
2023-04-30T23:27:07.596Z,4.13
2023-04-30T23:29:36.351Z,4.95
2023-04-30T23:32:04.942Z,4.95
2023-04-30T23:34:32.506Z,5.03
2023-04-30T23:37:00.016Z,4.50
2023-04-30T23:39:27.475Z,4.80
2023-04-30T23:41:54.784Z,6.05
2023-04-30T23:44:21.976Z,4.90
2023-04-30T23:46:51.115Z,7.07
2023-04-30T23:49:19.058Z,5.82
2023-04-30T23:51:46.272Z,3.22
2023-04-30T23:54:13.817Z,6.95
2023-04-30T23:56:41.136Z,5.35
2023-04-30T23:59:08.259Z,5.15
